Chilili, New Mexico
Current Conditions -  °F | °C
As of 2:52 PM on Friday 24 Oct 2014 (Local Time) from KABQ Reporting Station
Clear Clear  
Wind Chill: 77°   Ceiling: Unl
Heat Index: 77°   Visibility: 10mi
Dew Point: 33°   Wind: 7mph
Humidity: 20%   Direction: 260°W
Pressure: 30.26"   Gusts: NA
Location:  34.9842°N, 106.322°W
Report Text: KABQ 242052Z 26006KT 10SM CLR 25/01 A3026 RMK AO2 SLP180 T02500006 56026
Loading
Personal Weather Stations






























Interactive Weather Map
Tropical Storm Tracking
New forecast layout! Learn more

10-Day Weather Forecast

Advertisements
Track Severe Weather on mobile